Flight Track Log - Related Links

Times and Time Zones

All times are in EDT time to prevent confusion due to time zone crossing. See the JBU56 flight status page for this flight to view local times or setup timezone preferences in your user account.

Time Position Orientation Groundspeed Altitude Reporting Facility
EDT Latitude Longitude Course Direction KTS MPH feet Rate Location/Type
Thu 09:09:46 AM 38.9500 -77.5000 108° East 157 181 1,500  Level Potomac TRACON
Thu 09:10:46 AM 38.9833 -77.5500 311° West 228 262 2,900 1,950 Climbing Potomac TRACON
Thu 09:11:46 AM 39.0333 -77.6167 314° West 265 305 5,400 2,870 Climbing Potomac TRACON
Thu 09:12:00 AM 39.5407 -76.4302 52° Northeast  Level Estimated
Thu 09:12:41 AM 39.1000 -77.6333 349° North 273 314 8,400  Level Potomac TRACON
Thu 09:13:00 AM 39.5103 -76.3539 117° Southeast  Level FlightAware Approximate
Thu 09:13:47 AM 39.1833 -77.6000 17° North 320 368 10,000  Level Potomac TRACON
Thu 09:14:00 AM 39.5501 -76.2852 41° Northeast  Level Estimated
Thu 09:14:47 AM 39.1833 -77.4833 90° East 346 398 10,100  Level Potomac TRACON
Thu 09:15:00 AM 39.5299 -76.2034 108° East  Level FlightAware Approximate
Thu 09:15:41 AM 39.1833 -77.3667 90° East 348 400 10,100  Level Potomac TRACON
Thu 09:17:38 AM 39.1097 -77.1431 113° Southeast 368 423 13,900 2,203 Climbing Washington Center
Thu 09:18:38 AM 39.0906 -77.0117 101° East 373 429 16,600 2,281 Climbing Washington Center
Thu 09:19:39 AM 39.1003 -76.8781 85° East 362 417 18,500 1,770 Climbing Washington Center
Thu 09:20:40 AM 39.1097 -76.7658 84° East 368 423 20,200 1,966 Climbing Washington Center
Thu 09:21:38 AM 39.1258 -76.5950 83° East 388 447 22,400 1,412 Climbing Washington Center
Thu 09:22:39 AM 39.1394 -76.4506 83° East 402 463 23,000 298 Climbing Washington Center
Thu 09:23:39 AM 39.1531 -76.3222 82° East 408 470 23,000 545 Level Washington Center
Thu 09:24:40 AM 39.1619 -76.1725 86° East 408 470 24,100 1,339 Climbing Washington Center
Thu 09:25:40 AM 39.1794 -76.0228 81° East 413 475 25,700 1,513 Climbing Washington Center
Thu 09:26:39 AM 39.2069 -75.8728 77° East 419 482 27,100 1,200 Climbing Washington Center
Thu 09:27:40 AM 39.2842 -75.7578 49° Northeast 405 466 28,100 1,109 Climbing Washington Center
Thu 09:28:38 AM 39.3719 -75.6453 45° Northeast 422 486 29,300 1,475 Climbing Washington Center
Thu 09:29:38 AM 39.4572 -75.5325 46° Northeast 427 491 31,000 850 Climbing Washington Center
Thu 09:30:38 AM 39.5425 -75.4139 47° Northeast 433 498 31,000  Level Washington Center
Thu 09:33:00 AM 39.7475 -75.1286 47° Northeast 444 511 31,000  Level New York Center
Thu 09:34:00 AM 39.8353 -75.0097 46° Northeast 450 518 31,000  Level New York Center
Thu 09:35:00 AM 39.9208 -74.8903 47° Northeast 450 518 31,000  Level New York Center
Thu 09:36:00 AM 40.0089 -74.7547 50° Northeast 450 518 31,000  Level New York Center
Thu 09:37:00 AM 40.0942 -74.6347 47° Northeast 450 518 31,000 -50 Level New York Center
Thu 09:38:00 AM 40.1731 -74.5086 51° Northeast 450 518 30,900 -650 Descending New York Center
Thu 09:39:00 AM 40.2542 -74.3825 50° Northeast 450 518 29,700 -1,200 Descending New York Center
Thu 09:40:00 AM 40.3350 -74.2561 50° Northeast 450 518 28,500 -1,176 Descending New York Center
Thu 09:43:05 AM 40.5694 -73.8989 49° Northeast 430 495 24,900 -1,102 Descending Boston Center
Thu 09:44:05 AM 40.6417 -73.7858 50° Northeast 407 468 24,000 -458 Descending Boston Center
Thu 09:45:03 AM 40.7225 -73.6558 51° Northeast 402 463 24,000  Level Boston Center
Thu 09:46:03 AM 40.7967 -73.5367 51° Northeast 417 480 24,000  Level Boston Center
Thu 09:47:04 AM 40.8728 -73.4200 49° Northeast 417 480 24,000 -347 Level Boston Center
Thu 09:48:04 AM 40.9422 -73.3219 47° Northeast 417 480 23,300 -500 Descending Boston Center
Thu 09:49:04 AM 41.0181 -73.2075 49° Northeast 411 473 23,000 -148 Descending Boston Center
Thu 09:50:06 AM 41.0939 -73.0900 49° Northeast 411 473 23,000  Level Boston Center
Thu 09:51:04 AM 41.1508 -72.9556 61° Northeast 411 473 23,000  Level Boston Center
Thu 09:52:04 AM 41.2036 -72.8153 63° Northeast 411 473 23,000  Level Boston Center
Thu 09:53:04 AM 41.2519 -72.6886 63° Northeast 416 479 23,000  Level Boston Center
Thu 09:54:05 AM 41.3061 -72.5450 63° Northeast 427 491 23,000  Level Boston Center
Thu 09:55:06 AM 41.3708 -72.3819 62° Northeast 422 486 23,000  Level Boston Center
Thu 09:56:03 AM 41.4228 -72.2492 62° Northeast 416 479 23,000  Level Boston Center
Thu 09:57:04 AM 41.4789 -72.1103 62° Northeast 410 472 23,000 -149 Level Boston Center
Thu 09:58:04 AM 41.5325 -71.9686 63° Northeast 410 472 22,700 -1,250 Descending Boston Center
Thu 09:59:04 AM 41.5839 -71.8294 64° Northeast 416 479 20,500 -2,033 Descending Boston Center
Thu 10:00:05 AM 41.6311 -71.7125 62° Northeast 406 467 18,600 -1,686 Descending Boston Center
Thu 10:01:05 AM 41.6864 -71.5672 63° Northeast 401 461 17,100 -2,132 Descending Boston Center
Thu 10:02:06 AM 41.7333 -71.4442 63° Northeast 374 430 14,300 -2,370 Descending Boston Center
Thu 10:03:04 AM 41.7800 -71.3208 63° Northeast 369 425 12,400 -1,678 Descending Boston Center
Thu 10:04:04 AM 41.8247 -71.2031 63° Northeast 358 412 11,000 -694 Descending Boston Center
Thu 10:05:05 AM 41.8672 -71.0964 62° Northeast 339 390 11,000  Level Boston Center
Thu 10:06:09 AM 41.9167 -70.9833 60° Northeast 319 367 11,000  Level KA90
Thu 10:07:09 AM 41.9667 -70.8667 60° Northeast 324 373 11,000  Level KA90
Thu 10:08:03 AM 42.0047 -70.7861 58° Northeast 314 361 11,000 -783 Level Boston Center
Thu 10:09:04 AM 42.0556 -70.7008 51° Northeast 309 356 9,500 -1,475 Descending Boston Center
Thu 10:10:05 AM 42.1108 -70.6267 45° Northeast 291 335 8,000 -1,328 Descending Boston Center
Thu 10:11:06 AM 42.1875 -70.5992 15° North 270 311 6,800 -1,119 Descending Boston Center
Thu 10:12:03 AM 42.2625 -70.5914 North 264 304 5,800 -1,026 Descending Boston Center
Thu 10:13:03 AM 42.3150 -70.6206 338° Northwest 252 290 4,800 -952 Descending Boston Center
Thu 10:14:09 AM 42.4000 -70.6833 331° Northwest 254 292 3,800 -836 Descending KA90
Thu 10:15:05 AM 42.4375 -70.7325 316° Northwest 252 290 3,100 -421 Descending Boston Center
Thu 10:16:03 AM 42.4761 -70.8075 305° West 247 284 3,000 -242 Descending Boston Center
Thu 10:17:09 AM 42.5000 -70.8833 293° West 168 193 2,600 -614 Descending KA90
Thu 10:18:10 AM 42.4667 -70.9500 236° Southwest 174 200 1,700 -694 Descending KA90
Thu 10:19:10 AM 42.4333 -70.9667 200° South 167 192 1,200 -600 Descending KA90
Thu 10:20:10 AM 42.4000 -70.9833 200° South 141 162 500 -700 Descending KA90

Login

Don't have an account? Register now (free) for customized features, flight alerts, and more!